Time;durP1;ratioP1;P1;durP2;ratioP2;P2;SDS_P1;SDS_P2;PMS_P1;PMS_P2;Temp;Humidity;BMP_temperature;BMP_pressure;BME280_temperature;BME280_humidity;BME280_pressure;Samples;Min_cycle;Max_cycle;Signal;HPM_P1;HPM_P2
2021/03/24 16:48:48;;;;;;;15.00;7.90;;;2.80;73.10;;;;;;5122631;27;20378;-95
2021/03/24 16:51:49;;;;;;;15.35;7.45;;;2.80;75.20;;;;;;5122862;28;20025;-96
2021/03/24 16:54:30;;;;;;;17.27;8.10;;;2.80;76.20;;;;;;5121723;28;20024;-96
2021/03/24 16:57:16;;;;;;;17.17;9.52;;;2.90;77.20;;;;;;5107357;28;20036;-93
2021/03/24 16:59:59;;;;;;;21.08;9.82;;;2.90;77.50;;;;;;5085122;28;20132;-92
2021/03/24 17:02:47;;;;;;;18.38;9.73;;;3.00;77.60;;;;;;5095828;28;20082;-96
2021/03/24 17:05:58;;;;;;;21.63;10.55;;;3.10;77.90;;;;;;5097867;28;20029;-94
2021/03/24 17:09:02;;;;;;;15.52;9.55;;;3.10;77.40;;;;;;5055816;28;20037;-94
2021/03/24 17:12:21;;;;;;;13.23;7.70;;;3.20;77.40;;;;;;5076057;28;20032;-95
2021/03/24 17:15:08;;;;;;;19.05;9.20;;;3.20;77.80;;;;;;5033531;28;20478;-94
2021/03/24 17:17:53;;;;;;;16.23;8.02;;;3.30;78.00;;;;;;5058354;28;20035;-95
2021/03/24 17:20:22;;;;;;;16.35;8.82;;;3.30;78.00;;;;;;5122911;28;20032;-96
2021/03/24 17:23:05;;;;;;;15.80;9.85;;;3.30;78.20;;;;;;5118124;28;20027;-95
2021/03/24 17:25:36;;;;;;;17.73;10.55;;;3.30;77.90;;;;;;5131889;28;20031;-94
2021/03/24 17:28:32;;;;;;;16.63;9.95;;;3.30;77.80;;;;;;5111730;28;20097;-93
2021/03/24 17:31:24;;;;;;;17.80;10.25;;;3.40;77.50;;;;;;5081586;28;20427;-93
2021/03/24 17:34:13;;;;;;;19.55;10.15;;;3.30;77.30;;;;;;5090239;28;20024;-94
2021/03/24 17:36:45;;;;;;;19.88;10.80;;;3.40;77.40;;;;;;5090117;28;20024;-94
2021/03/24 17:39:38;;;;;;;17.35;10.07;;;3.40;77.60;;;;;;5103591;28;20031;-95
2021/03/24 17:42:19;;;;;;;20.65;10.80;;;3.40;77.50;;;;;;5101517;28;20507;-94
2021/03/24 17:45:04;;;;;;;18.40;10.70;;;3.40;77.60;;;;;;5110276;28;20077;-94
2021/03/24 17:47:59;;;;;;;17.08;10.23;;;3.40;77.70;;;;;;5110022;28;20044;-96
2021/03/24 17:50:34;;;;;;;22.52;11.35;;;3.40;77.70;;;;;;5103541;28;20100;-96
2021/03/24 17:53:08;;;;;;;21.90;11.23;;;3.40;77.80;;;;;;5114104;28;20114;-96
2021/03/24 17:56:01;;;;;;;23.20;10.35;;;3.40;77.90;;;;;;5113221;28;20020;-96
2021/03/24 17:58:38;;;;;;;14.63;8.70;;;3.30;78.00;;;;;;5089445;28;20123;-96
2021/03/24 18:01:14;;;;;;;16.33;9.40;;;3.30;78.30;;;;;;5099128;28;20048;-96
2021/03/24 18:03:40;;;;;;;14.75;9.07;;;3.40;78.40;;;;;;5089602;28;20031;-95
2021/03/24 18:06:38;;;;;;;15.20;8.93;;;3.30;78.40;;;;;;5087528;28;20118;-96
2021/03/24 18:09:33;;;;;;;16.35;10.38;;;3.30;78.50;;;;;;5096527;28;20016;-95
2021/03/24 18:12:21;;;;;;;18.48;10.25;;;3.30;78.50;;;;;;5075815;28;20031;-95
2021/03/24 18:14:48;;;;;;;17.45;10.00;;;3.30;78.50;;;;;;5076313;28;20052;-95
2021/03/24 18:17:27;;;;;;;14.60;9.35;;;3.30;78.60;;;;;;5090392;28;20157;-93
2021/03/24 18:20:06;;;;;;;17.75;9.52;;;3.20;78.60;;;;;;5095843;28;20032;-94
2021/03/24 18:22:35;;;;;;;14.85;8.38;;;3.20;78.70;;;;;;5112800;28;20056;-94
2021/03/24 18:25:07;;;;;;;14.90;8.80;;;3.10;78.70;;;;;;5095668;28;20063;-94
2021/03/24 18:27:36;;;;;;;12.88;8.23;;;3.10;78.60;;;;;;5088214;28;20548;-95
2021/03/24 18:30:14;;;;;;;12.02;7.70;;;3.10;78.80;;;;;;5095422;28;20020;-94
2021/03/24 18:32:43;;;;;;;11.20;7.85;;;3.00;78.80;;;;;;5093813;28;20032;-95
2021/03/24 19:55:12;;;;;;;15.50;10.23;;;0.70;79.00;;;;;;5663842;22;15275494;-95
2021/03/24 20:00:54;;;;;;;12.80;8.60;;;1.80;82.20;;;;;;6351646;22;20026;-96
2021/03/24 20:23:44;;;;;;;16.05;9.10;;;1.60;80.30;;;;;;5011785;27;1134079;-92
2021/03/24 20:26:10;;;;;;;11.75;7.60;;;2.10;79.60;;;;;;5029825;28;20082;-94
2021/03/24 20:28:36;;;;;;;12.63;8.27;;;2.10;79.90;;;;;;5050438;28;20018;-94
2021/03/24 20:31:02;;;;;;;10.60;7.45;;;2.00;80.10;;;;;;5029670;28;20116;-94
